sensor_id;sensor_type;location;lat;lon;timestamp;pressure;altitude;pressure_sealevel;temperature;humidity
17072;BME280;7731;50.720;6.912;2022-10-03T00:01:57;101010.75;;;9.42;100.00
17072;BME280;7731;50.720;6.912;2022-10-03T00:04:51;101018.47;;;9.40;100.00
17072;BME280;7731;50.720;6.912;2022-10-03T00:07:47;101018.53;;;9.39;100.00
17072;BME280;7731;50.720;6.912;2022-10-03T00:10:33;101026.25;;;9.37;100.00
17072;BME280;7731;50.720;6.912;2022-10-03T00:13:21;101027.13;;;9.36;100.00
17072;BME280;7731;50.720;6.912;2022-10-03T00:16:08;101021.22;;;9.34;100.00
17072;BME280;7731;50.720;6.912;2022-10-03T00:18:59;101028.84;;;9.37;100.00
17072;BME280;7731;50.720;6.912;2022-10-03T00:21:51;101039.44;;;9.25;100.00
17072;BME280;7731;50.720;6.912;2022-10-03T00:24:46;101037.84;;;9.21;100.00
17072;BME280;7731;50.720;6.912;2022-10-03T00:27:31;101048.56;;;9.05;100.00
17072;BME280;7731;50.720;6.912;2022-10-03T00:30:15;101055.47;;;9.03;100.00
17072;BME280;7731;50.720;6.912;2022-10-03T00:33:06;101058.81;;;9.05;100.00
17072;BME280;7731;50.720;6.912;2022-10-03T00:36:06;101057.06;;;9.06;100.00
17072;BME280;7731;50.720;6.912;2022-10-03T00:42:29;101063.31;;;8.97;100.00
17072;BME280;7731;50.720;6.912;2022-10-03T00:46:04;101067.50;;;9.00;100.00
17072;BME280;7731;50.720;6.912;2022-10-03T00:49:13;101064.28;;;8.93;100.00
17072;BME280;7731;50.720;6.912;2022-10-03T00:52:03;101070.41;;;8.87;100.00
17072;BME280;7731;50.720;6.912;2022-10-03T00:55:03;101072.38;;;8.78;100.00
17072;BME280;7731;50.720;6.912;2022-10-03T00:57:59;101063.25;;;8.67;100.00
17072;BME280;7731;50.720;6.912;2022-10-03T01:00:34;101075.22;;;8.67;100.00
17072;BME280;7731;50.720;6.912;2022-10-03T01:03:35;101069.28;;;8.66;100.00
17072;BME280;7731;50.720;6.912;2022-10-03T01:06:28;101071.69;;;8.72;100.00
17072;BME280;7731;50.720;6.912;2022-10-03T01:09:20;101070.22;;;8.62;100.00
17072;BME280;7731;50.720;6.912;2022-10-03T01:12:16;101065.50;;;8.47;100.00
17072;BME280;7731;50.720;6.912;2022-10-03T01:15:18;101073.28;;;8.42;100.00
17072;BME280;7731;50.720;6.912;2022-10-03T01:18:17;101079.09;;;8.49;100.00
17072;BME280;7731;50.720;6.912;2022-10-03T01:21:07;101073.31;;;8.40;100.00
17072;BME280;7731;50.720;6.912;2022-10-03T01:27:00;101071.09;;;8.27;100.00
17072;BME280;7731;50.720;6.912;2022-10-03T01:29:51;101074.34;;;8.33;100.00
17072;BME280;7731;50.720;6.912;2022-10-03T01:32:43;101064.91;;;8.34;100.00
17072;BME280;7731;50.720;6.912;2022-10-03T01:35:35;101067.69;;;8.26;100.00
17072;BME280;7731;50.720;6.912;2022-10-03T01:38:16;101061.03;;;8.19;100.00
17072;BME280;7731;50.720;6.912;2022-10-03T01:40:58;101062.09;;;8.10;100.00
17072;BME280;7731;50.720;6.912;2022-10-03T01:43:42;101061.19;;;8.13;100.00
17072;BME280;7731;50.720;6.912;2022-10-03T01:46:23;101064.56;;;8.15;100.00
17072;BME280;7731;50.720;6.912;2022-10-03T01:49:07;101065.53;;;8.09;100.00
17072;BME280;7731;50.720;6.912;2022-10-03T01:51:55;101067.47;;;7.99;100.00
17072;BME280;7731;50.720;6.912;2022-10-03T01:54:38;101067.25;;;8.09;100.00
17072;BME280;7731;50.720;6.912;2022-10-03T01:57:18;101072.00;;;8.24;100.00
17072;BME280;7731;50.720;6.912;2022-10-03T01:59:57;101064.25;;;8.27;100.00
17072;BME280;7731;50.720;6.912;2022-10-03T02:02:44;101077.25;;;8.19;100.00
17072;BME280;7731;50.720;6.912;2022-10-03T02:05:27;101080.41;;;8.29;100.00
17072;BME280;7731;50.720;6.912;2022-10-03T02:08:24;101079.75;;;8.21;100.00
17072;BME280;7731;50.720;6.912;2022-10-03T02:11:02;101083.25;;;8.17;100.00
17072;BME280;7731;50.720;6.912;2022-10-03T02:13:47;101086.88;;;8.10;100.00
17072;BME280;7731;50.720;6.912;2022-10-03T02:16:35;101093.38;;;7.85;100.00
17072;BME280;7731;50.720;6.912;2022-10-03T02:19:29;101093.44;;;7.84;100.00
17072;BME280;7731;50.720;6.912;2022-10-03T02:22:13;101094.16;;;7.89;100.00
17072;BME280;7731;50.720;6.912;2022-10-03T02:25:01;101088.81;;;7.98;100.00
17072;BME280;7731;50.720;6.912;2022-10-03T02:28:22;101093.31;;;7.89;100.00
17072;BME280;7731;50.720;6.912;2022-10-03T02:38:14;101088.75;;;8.01;100.00
17072;BME280;7731;50.720;6.912;2022-10-03T02:41:07;101085.41;;;7.99;100.00
17072;BME280;7731;50.720;6.912;2022-10-03T02:44:19;101083.88;;;7.91;100.00
17072;BME280;7731;50.720;6.912;2022-10-03T03:08:18;101087.47;;;7.83;100.00
17072;BME280;7731;50.720;6.912;2022-10-03T03:15:08;101094.88;;;7.96;100.00
17072;BME280;7731;50.720;6.912;2022-10-03T03:18:12;101102.00;;;7.81;100.00
17072;BME280;7731;50.720;6.912;2022-10-03T03:21:01;101104.66;;;7.77;100.00
17072;BME280;7731;50.720;6.912;2022-10-03T03:24:14;101101.75;;;7.92;100.00
17072;BME280;7731;50.720;6.912;2022-10-03T03:27:22;101111.56;;;8.11;100.00
17072;BME280;7731;50.720;6.912;2022-10-03T03:30:05;101108.75;;;8.21;100.00
17072;BME280;7731;50.720;6.912;2022-10-03T03:32:57;101112.09;;;8.25;100.00
17072;BME280;7731;50.720;6.912;2022-10-03T03:35:53;101118.94;;;8.23;100.00
17072;BME280;7731;50.720;6.912;2022-10-03T03:38:39;101113.97;;;8.17;100.00
17072;BME280;7731;50.720;6.912;2022-10-03T03:41:30;101112.38;;;8.13;100.00
17072;BME280;7731;50.720;6.912;2022-10-03T03:44:36;101116.50;;;8.18;100.00
17072;BME280;7731;50.720;6.912;2022-10-03T03:47:39;101120.78;;;8.18;100.00
17072;BME280;7731;50.720;6.912;2022-10-03T03:50:29;101116.44;;;8.21;100.00
17072;BME280;7731;50.720;6.912;2022-10-03T03:53:30;101116.22;;;8.31;100.00
17072;BME280;7731;50.720;6.912;2022-10-03T03:56:38;101123.78;;;8.35;100.00
17072;BME280;7731;50.720;6.912;2022-10-03T03:59:35;101123.69;;;8.38;100.00
17072;BME280;7731;50.720;6.912;2022-10-03T04:02:37;101115.53;;;8.24;100.00
17072;BME280;7731;50.720;6.912;2022-10-03T04:05:34;101119.03;;;8.20;100.00
17072;BME280;7731;50.720;6.912;2022-10-03T04:08:44;101128.56;;;8.13;100.00
17072;BME280;7731;50.720;6.912;2022-10-03T04:11:35;101127.75;;;8.13;100.00
17072;BME280;7731;50.720;6.912;2022-10-03T04:14:45;101129.47;;;8.11;100.00
17072;BME280;7731;50.720;6.912;2022-10-03T04:17:42;101124.56;;;8.01;100.00
17072;BME280;7731;50.720;6.912;2022-10-03T04:24:14;101137.78;;;7.83;100.00
17072;BME280;7731;50.720;6.912;2022-10-03T04:27:11;101135.34;;;7.77;100.00
17072;BME280;7731;50.720;6.912;2022-10-03T04:30:01;101126.00;;;7.77;100.00
17072;BME280;7731;50.720;6.912;2022-10-03T04:33:17;101132.66;;;7.83;100.00
17072;BME280;7731;50.720;6.912;2022-10-03T04:36:40;101139.41;;;7.87;100.00
17072;BME280;7731;50.720;6.912;2022-10-03T04:39:24;101136.84;;;7.87;100.00
17072;BME280;7731;50.720;6.912;2022-10-03T04:42:11;101137.84;;;7.80;100.00
17072;BME280;7731;50.720;6.912;2022-10-03T04:45:01;101133.69;;;7.76;100.00
17072;BME280;7731;50.720;6.912;2022-10-03T04:47:41;101139.59;;;7.78;100.00
17072;BME280;7731;50.720;6.912;2022-10-03T04:50:30;101136.16;;;7.80;100.00
17072;BME280;7731;50.720;6.912;2022-10-03T04:53:23;101138.00;;;7.72;100.00
17072;BME280;7731;50.720;6.912;2022-10-03T04:56:20;101134.50;;;7.78;100.00
17072;BME280;7731;50.720;6.912;2022-10-03T04:59:01;101133.50;;;7.85;100.00
17072;BME280;7731;50.720;6.912;2022-10-03T05:01:41;101128.16;;;7.94;100.00
17072;BME280;7731;50.720;6.912;2022-10-03T05:04:24;101129.91;;;7.92;100.00
17072;BME280;7731;50.720;6.912;2022-10-03T05:07:10;101134.09;;;7.96;100.00
17072;BME280;7731;50.720;6.912;2022-10-03T05:09:52;101136.50;;;8.02;100.00
17072;BME280;7731;50.720;6.912;2022-10-03T05:12:41;101136.28;;;8.12;100.00
17072;BME280;7731;50.720;6.912;2022-10-03T05:15:23;101141.41;;;8.12;100.00
17072;BME280;7731;50.720;6.912;2022-10-03T05:18:04;101138.06;;;8.10;100.00
17072;BME280;7731;50.720;6.912;2022-10-03T05:20:54;101135.09;;;7.89;100.00
17072;BME280;7731;50.720;6.912;2022-10-03T05:23:48;101144.34;;;7.95;100.00
17072;BME280;7731;50.720;6.912;2022-10-03T05:26:37;101147.50;;;8.06;100.00
17072;BME280;7731;50.720;6.912;2022-10-03T05:29:23;101148.28;;;8.10;100.00
17072;BME280;7731;50.720;6.912;2022-10-03T05:32:18;101153.19;;;8.19;100.00
17072;BME280;7731;50.720;6.912;2022-10-03T05:35:14;101162.56;;;8.18;100.00
17072;BME280;7731;50.720;6.912;2022-10-03T05:38:29;101159.97;;;8.20;100.00
17072;BME280;7731;50.720;6.912;2022-10-03T05:41:22;101165.09;;;8.20;100.00
17072;BME280;7731;50.720;6.912;2022-10-03T05:44:04;101165.88;;;8.23;100.00
17072;BME280;7731;50.720;6.912;2022-10-03T05:46:55;101163.38;;;8.22;100.00
17072;BME280;7731;50.720;6.912;2022-10-03T05:49:58;101163.22;;;8.28;100.00
17072;BME280;7731;50.720;6.912;2022-10-03T05:52:58;101166.38;;;8.39;100.00
17072;BME280;7731;50.720;6.912;2022-10-03T05:55:45;101171.59;;;8.35;100.00
17072;BME280;7731;50.720;6.912;2022-10-03T05:59:04;101169.72;;;8.43;100.00
17072;BME280;7731;50.720;6.912;2022-10-03T06:02:07;101166.88;;;8.55;100.00
17072;BME280;7731;50.720;6.912;2022-10-03T06:05:14;101166.09;;;8.52;100.00
17072;BME280;7731;50.720;6.912;2022-10-03T06:08:09;101169.50;;;8.54;100.00
17072;BME280;7731;50.720;6.912;2022-10-03T06:10:52;101171.91;;;8.60;100.00
17072;BME280;7731;50.720;6.912;2022-10-03T06:14:07;101172.72;;;8.61;100.00
17072;BME280;7731;50.720;6.912;2022-10-03T06:16:55;101180.34;;;8.64;100.00
17072;BME280;7731;50.720;6.912;2022-10-03T06:19:46;101176.13;;;8.61;100.00
17072;BME280;7731;50.720;6.912;2022-10-03T06:26:18;101182.41;;;8.84;100.00
17072;BME280;7731;50.720;6.912;2022-10-03T06:29:48;101184.88;;;8.87;100.00
17072;BME280;7731;50.720;6.912;2022-10-03T06:43:13;101185.97;;;9.42;100.00
17072;BME280;7731;50.720;6.912;2022-10-03T06:46:38;101185.31;;;9.65;100.00
17072;BME280;7731;50.720;6.912;2022-10-03T06:49:57;101195.38;;;9.73;100.00
17072;BME280;7731;50.720;6.912;2022-10-03T06:53:17;101191.81;;;9.47;100.00
17072;BME280;7731;50.720;6.912;2022-10-03T07:00:08;101190.22;;;10.03;100.00
17072;BME280;7731;50.720;6.912;2022-10-03T07:03:22;101193.06;;;9.94;100.00
17072;BME280;7731;50.720;6.912;2022-10-03T07:06:39;101198.34;;;10.17;100.00
17072;BME280;7731;50.720;6.912;2022-10-03T07:09:52;101196.44;;;10.52;100.00
17072;BME280;7731;50.720;6.912;2022-10-03T07:17:09;101201.06;;;10.68;100.00
17072;BME280;7731;50.720;6.912;2022-10-03T07:23:51;101200.88;;;10.74;100.00
17072;BME280;7731;50.720;6.912;2022-10-03T07:27:11;101207.81;;;10.72;100.00
17072;BME280;7731;50.720;6.912;2022-10-03T07:30:13;101207.03;;;10.95;100.00
17072;BME280;7731;50.720;6.912;2022-10-03T07:37:16;101210.41;;;15.07;87.19
17072;BME280;7731;50.720;6.912;2022-10-03T07:44:17;101213.25;;;17.37;70.80
17072;BME280;7731;50.720;6.912;2022-10-03T07:47:37;101216.28;;;17.73;71.25
17072;BME280;7731;50.720;6.912;2022-10-03T07:50:49;101211.47;;;18.88;68.93
17072;BME280;7731;50.720;6.912;2022-10-03T07:54:04;101215.56;;;18.52;67.34
17072;BME280;7731;50.720;6.912;2022-10-03T07:57:26;101219.00;;;18.53;65.84
17072;BME280;7731;50.720;6.912;2022-10-03T08:00:23;101221.13;;;17.21;73.18
17072;BME280;7731;50.720;6.912;2022-10-03T08:03:52;101231.47;;;16.62;78.50
17072;BME280;7731;50.720;6.912;2022-10-03T08:06:37;101241.16;;;15.96;80.54
17072;BME280;7731;50.720;6.912;2022-10-03T08:09:50;101235.31;;;14.56;90.94
17072;BME280;7731;50.720;6.912;2022-10-03T08:13:16;101236.84;;;14.60;90.79
17072;BME280;7731;50.720;6.912;2022-10-03T08:16:17;101242.81;;;14.06;94.18
17072;BME280;7731;50.720;6.912;2022-10-03T08:19:20;101237.22;;;14.16;95.56
17072;BME280;7731;50.720;6.912;2022-10-03T08:22:04;101244.75;;;14.76;90.71
17072;BME280;7731;50.720;6.912;2022-10-03T08:25:07;101246.56;;;14.37;93.83
17072;BME280;7731;50.720;6.912;2022-10-03T08:28:18;101247.03;;;13.90;97.68
17072;BME280;7731;50.720;6.912;2022-10-03T08:31:47;101257.19;;;13.34;100.00
17072;BME280;7731;50.720;6.912;2022-10-03T08:34:51;101252.75;;;13.78;99.66
17072;BME280;7731;50.720;6.912;2022-10-03T08:38:04;101252.19;;;13.71;100.00
17072;BME280;7731;50.720;6.912;2022-10-03T08:57:16;101248.28;;;15.93;90.42
17072;BME280;7731;50.720;6.912;2022-10-03T09:00:12;101245.50;;;16.28;89.03
17072;BME280;7731;50.720;6.912;2022-10-03T09:06:47;101240.78;;;17.68;75.20
17072;BME280;7731;50.720;6.912;2022-10-03T09:13:32;101246.53;;;17.59;76.09
17072;BME280;7731;50.720;6.912;2022-10-03T09:16:39;101245.97;;;17.25;80.36
17072;BME280;7731;50.720;6.912;2022-10-03T09:19:36;101240.59;;;17.43;79.41
17072;BME280;7731;50.720;6.912;2022-10-03T09:26:11;101237.81;;;17.60;77.49
17072;BME280;7731;50.720;6.912;2022-10-03T09:29:23;101236.59;;;18.62;71.30
17072;BME280;7731;50.720;6.912;2022-10-03T09:32:48;101235.00;;;17.78;74.58
17072;BME280;7731;50.720;6.912;2022-10-03T09:36:00;101257.22;;;16.03;85.27
17072;BME280;7731;50.720;6.912;2022-10-03T09:39:19;101251.22;;;15.86;88.54
17072;BME280;7731;50.720;6.912;2022-10-03T09:49:30;101246.09;;;16.63;81.64
17072;BME280;7731;50.720;6.912;2022-10-03T09:52:33;101256.81;;;15.61;85.36
17072;BME280;7731;50.720;6.912;2022-10-03T09:55:43;101249.03;;;15.28;88.58
17072;BME280;7731;50.720;6.912;2022-10-03T09:59:01;101238.66;;;16.27;83.16
17072;BME280;7731;50.720;6.912;2022-10-03T10:01:41;101220.38;;;17.05;76.98
17072;BME280;7731;50.720;6.912;2022-10-03T10:05:17;101233.97;;;16.17;81.99
17072;BME280;7731;50.720;6.912;2022-10-03T10:15:21;101216.19;;;15.62;82.52
17072;BME280;7731;50.720;6.912;2022-10-03T10:18:35;101215.72;;;16.35;81.64
17072;BME280;7731;50.720;6.912;2022-10-03T10:21:39;101222.47;;;16.68;73.91
17072;BME280;7731;50.720;6.912;2022-10-03T10:28:16;101234.50;;;16.08;77.15
17072;BME280;7731;50.720;6.912;2022-10-03T10:31:37;101238.28;;;17.09;75.59
17072;BME280;7731;50.720;6.912;2022-10-03T10:38:02;101230.78;;;16.58;71.24
17072;BME280;7731;50.720;6.912;2022-10-03T10:41:39;101226.38;;;16.60;71.44
17072;BME280;7731;50.720;6.912;2022-10-03T10:52:07;101215.13;;;18.46;64.90
17072;BME280;7731;50.720;6.912;2022-10-03T10:55:32;101217.50;;;19.40;55.51
17072;BME280;7731;50.720;6.912;2022-10-03T10:59:02;101202.16;;;19.86;54.68
17072;BME280;7731;50.720;6.912;2022-10-03T11:05:42;101216.31;;;19.57;53.92
17072;BME280;7731;50.720;6.912;2022-10-03T11:09:11;101207.81;;;19.79;51.17
17072;BME280;7731;50.720;6.912;2022-10-03T11:25:52;101197.38;;;17.42;62.43
17072;BME280;7731;50.720;6.912;2022-10-03T11:29:17;101189.19;;;19.23;54.95
17072;BME280;7731;50.720;6.912;2022-10-03T11:39:02;101181.84;;;18.77;53.74
17072;BME280;7731;50.720;6.912;2022-10-03T11:41:46;101191.19;;;18.13;58.38
17072;BME280;7731;50.720;6.912;2022-10-03T11:44:24;101184.47;;;20.02;51.68
17072;BME280;7731;50.720;6.912;2022-10-03T11:47:39;101179.56;;;18.59;53.49
17072;BME280;7731;50.720;6.912;2022-10-03T11:50:47;101184.53;;;18.09;58.05
17072;BME280;7731;50.720;6.912;2022-10-03T11:53:42;101187.63;;;17.87;59.67
17072;BME280;7731;50.720;6.912;2022-10-03T11:56:39;101185.13;;;17.44;60.86
17072;BME280;7731;50.720;6.912;2022-10-03T11:59:53;101186.00;;;17.72;61.55
17072;BME280;7731;50.720;6.912;2022-10-03T12:02:59;101195.63;;;17.28;60.40
17072;BME280;7731;50.720;6.912;2022-10-03T12:05:49;101182.34;;;17.33;60.77
17072;BME280;7731;50.720;6.912;2022-10-03T12:08:49;101183.88;;;18.46;56.53
17072;BME280;7731;50.720;6.912;2022-10-03T12:11:25;101187.09;;;16.97;62.93
17072;BME280;7731;50.720;6.912;2022-10-03T12:14:23;101186.06;;;17.14;61.29
17072;BME280;7731;50.720;6.912;2022-10-03T12:17:05;101181.06;;;17.11;59.66
17072;BME280;7731;50.720;6.912;2022-10-03T12:19:53;101176.00;;;16.79;63.02
17072;BME280;7731;50.720;6.912;2022-10-03T12:22:42;101187.53;;;17.04;64.07
17072;BME280;7731;50.720;6.912;2022-10-03T12:25:22;101181.28;;;16.77;66.46
17072;BME280;7731;50.720;6.912;2022-10-03T12:28:07;101191.59;;;16.93;66.60
17072;BME280;7731;50.720;6.912;2022-10-03T12:30:51;101183.63;;;17.40;63.85
17072;BME280;7731;50.720;6.912;2022-10-03T12:33:50;101181.69;;;17.99;58.72
17072;BME280;7731;50.720;6.912;2022-10-03T12:36:29;101183.56;;;17.83;61.12
17072;BME280;7731;50.720;6.912;2022-10-03T12:39:27;101179.56;;;17.21;59.89
17072;BME280;7731;50.720;6.912;2022-10-03T12:42:25;101166.81;;;17.60;58.02
17072;BME280;7731;50.720;6.912;2022-10-03T12:45:03;101171.06;;;17.05;60.08
17072;BME280;7731;50.720;6.912;2022-10-03T12:48:01;101163.03;;;17.37;58.58
17072;BME280;7731;50.720;6.912;2022-10-03T12:50:53;101161.66;;;17.17;59.73
17072;BME280;7731;50.720;6.912;2022-10-03T12:53:41;101160.81;;;17.45;59.19
17072;BME280;7731;50.720;6.912;2022-10-03T12:56:35;101165.19;;;16.87;61.37
17072;BME280;7731;50.720;6.912;2022-10-03T12:59:19;101164.53;;;16.98;60.46
17072;BME280;7731;50.720;6.912;2022-10-03T13:02:32;101168.56;;;16.12;64.18
17072;BME280;7731;50.720;6.912;2022-10-03T13:05:52;101166.53;;;16.78;64.76
17072;BME280;7731;50.720;6.912;2022-10-03T13:08:43;101162.84;;;16.82;62.91
17072;BME280;7731;50.720;6.912;2022-10-03T13:11:30;101166.66;;;17.48;60.32
17072;BME280;7731;50.720;6.912;2022-10-03T13:14:27;101167.72;;;17.17;61.93
17072;BME280;7731;50.720;6.912;2022-10-03T13:17:12;101166.03;;;17.02;62.41
17072;BME280;7731;50.720;6.912;2022-10-03T13:19:57;101162.88;;;17.11;64.30
17072;BME280;7731;50.720;6.912;2022-10-03T13:22:42;101159.50;;;17.52;61.70
17072;BME280;7731;50.720;6.912;2022-10-03T13:25:20;101154.44;;;17.92;58.99
17072;BME280;7731;50.720;6.912;2022-10-03T13:28:05;101161.47;;;17.90;58.50
17072;BME280;7731;50.720;6.912;2022-10-03T13:30:52;101166.69;;;17.76;58.31
17072;BME280;7731;50.720;6.912;2022-10-03T13:33:27;101162.56;;;18.00;57.48
17072;BME280;7731;50.720;6.912;2022-10-03T13:36:04;101159.22;;;17.84;57.19
17072;BME280;7731;50.720;6.912;2022-10-03T13:39:02;101158.09;;;17.61;58.93
17072;BME280;7731;50.720;6.912;2022-10-03T13:41:59;101153.88;;;17.31;61.08
17072;BME280;7731;50.720;6.912;2022-10-03T13:44:38;101144.81;;;17.65;58.34
17072;BME280;7731;50.720;6.912;2022-10-03T13:47:40;101136.63;;;17.72;56.65
17072;BME280;7731;50.720;6.912;2022-10-03T13:50:24;101133.25;;;17.84;55.31
17072;BME280;7731;50.720;6.912;2022-10-03T13:53:00;101132.44;;;18.11;56.11
17072;BME280;7731;50.720;6.912;2022-10-03T13:55:45;101135.44;;;17.07;57.33
17072;BME280;7731;50.720;6.912;2022-10-03T13:58:41;101123.69;;;17.43;56.53
17072;BME280;7731;50.720;6.912;2022-10-03T14:01:30;101125.28;;;17.45;54.42
17072;BME280;7731;50.720;6.912;2022-10-03T14:07:41;101124.13;;;17.64;56.91
17072;BME280;7731;50.720;6.912;2022-10-03T14:14:29;101120.84;;;17.33;55.53
17072;BME280;7731;50.720;6.912;2022-10-03T14:17:11;101131.63;;;17.12;56.30
17072;BME280;7731;50.720;6.912;2022-10-03T14:20:08;101125.91;;;16.63;60.11
17072;BME280;7731;50.720;6.912;2022-10-03T14:23:09;101129.75;;;16.27;62.02
17072;BME280;7731;50.720;6.912;2022-10-03T14:25:50;101130.22;;;16.33;62.39
17072;BME280;7731;50.720;6.912;2022-10-03T14:28:34;101120.25;;;16.11;62.05
17072;BME280;7731;50.720;6.912;2022-10-03T14:31:17;101123.66;;;16.42;61.37
17072;BME280;7731;50.720;6.912;2022-10-03T14:33:58;101121.13;;;16.85;58.33
17072;BME280;7731;50.720;6.912;2022-10-03T14:36:39;101114.41;;;16.97;55.62
17072;BME280;7731;50.720;6.912;2022-10-03T14:39:31;101117.47;;;16.89;55.16
17072;BME280;7731;50.720;6.912;2022-10-03T14:42:31;101120.38;;;16.83;57.72
17072;BME280;7731;50.720;6.912;2022-10-03T14:45:15;101114.84;;;17.87;55.51
17072;BME280;7731;50.720;6.912;2022-10-03T14:47:53;101110.59;;;17.17;58.68
17072;BME280;7731;50.720;6.912;2022-10-03T14:50:33;101108.09;;;17.43;57.62
17072;BME280;7731;50.720;6.912;2022-10-03T14:53:17;101109.44;;;17.21;58.04
17072;BME280;7731;50.720;6.912;2022-10-03T14:55:58;101112.06;;;17.07;59.90
17072;BME280;7731;50.720;6.912;2022-10-03T14:58:36;101108.34;;;17.25;60.24
17072;BME280;7731;50.720;6.912;2022-10-03T15:01:15;101100.84;;;17.21;59.83
17072;BME280;7731;50.720;6.912;2022-10-03T15:04:01;101097.78;;;16.85;60.57
17072;BME280;7731;50.720;6.912;2022-10-03T15:06:50;101093.78;;;16.65;64.13
17072;BME280;7731;50.720;6.912;2022-10-03T15:09:31;101091.00;;;16.83;61.35
17072;BME280;7731;50.720;6.912;2022-10-03T15:12:09;101093.66;;;16.52;62.00
17072;BME280;7731;50.720;6.912;2022-10-03T15:14:53;101087.94;;;17.19;59.31
17072;BME280;7731;50.720;6.912;2022-10-03T15:17:29;101084.63;;;16.88;62.20
17072;BME280;7731;50.720;6.912;2022-10-03T15:20:05;101090.16;;;16.53;63.72
17072;BME280;7731;50.720;6.912;2022-10-03T15:22:46;101084.63;;;16.88;62.04
17072;BME280;7731;50.720;6.912;2022-10-03T15:25:24;101077.56;;;16.76;64.18
17072;BME280;7731;50.720;6.912;2022-10-03T15:28:01;101081.25;;;16.57;65.68
17072;BME280;7731;50.720;6.912;2022-10-03T15:30:40;101084.13;;;16.53;64.95
17072;BME280;7731;50.720;6.912;2022-10-03T15:33:23;101079.00;;;16.37;66.05
17072;BME280;7731;50.720;6.912;2022-10-03T15:36:15;101075.66;;;16.20;67.33
17072;BME280;7731;50.720;6.912;2022-10-03T15:38:56;101079.34;;;16.31;65.95
17072;BME280;7731;50.720;6.912;2022-10-03T15:41:42;101076.75;;;16.16;67.90
17072;BME280;7731;50.720;6.912;2022-10-03T15:44:23;101081.94;;;16.31;66.07
17072;BME280;7731;50.720;6.912;2022-10-03T15:47:06;101071.56;;;16.16;65.97
17072;BME280;7731;50.720;6.912;2022-10-03T15:49:43;101071.72;;;15.99;67.51
17072;BME280;7731;50.720;6.912;2022-10-03T15:52:24;101073.81;;;15.76;67.55
17072;BME280;7731;50.720;6.912;2022-10-03T15:55:10;101057.13;;;15.82;69.01
17072;BME280;7731;50.720;6.912;2022-10-03T15:57:49;101057.41;;;15.76;69.33
17072;BME280;7731;50.720;6.912;2022-10-03T16:00:30;101061.75;;;15.75;69.62
17072;BME280;7731;50.720;6.912;2022-10-03T16:03:11;101067.41;;;15.83;68.84
17072;BME280;7731;50.720;6.912;2022-10-03T16:05:55;101065.94;;;15.94;68.41
17072;BME280;7731;50.720;6.912;2022-10-03T16:08:49;101069.13;;;15.99;68.00
17072;BME280;7731;50.720;6.912;2022-10-03T16:11:26;101056.97;;;15.99;67.58
17072;BME280;7731;50.720;6.912;2022-10-03T16:14:17;101055.03;;;16.03;67.99
17072;BME280;7731;50.720;6.912;2022-10-03T16:16:55;101061.09;;;15.87;69.21
17072;BME280;7731;50.720;6.912;2022-10-03T16:19:35;101053.06;;;15.76;70.27
17072;BME280;7731;50.720;6.912;2022-10-03T16:22:19;101053.34;;;15.56;72.47
17072;BME280;7731;50.720;6.912;2022-10-03T16:25:05;101058.28;;;15.44;72.80
17072;BME280;7731;50.720;6.912;2022-10-03T16:27:51;101051.59;;;15.40;74.06
17072;BME280;7731;50.720;6.912;2022-10-03T16:30:27;101043.44;;;15.32;74.20
17072;BME280;7731;50.720;6.912;2022-10-03T16:33:08;101050.47;;;15.30;73.99
17072;BME280;7731;50.720;6.912;2022-10-03T16:35:46;101035.59;;;15.33;74.03
17072;BME280;7731;50.720;6.912;2022-10-03T16:38:24;101034.91;;;15.30;75.43
17072;BME280;7731;50.720;6.912;2022-10-03T16:41:04;101039.19;;;15.15;75.54
17072;BME280;7731;50.720;6.912;2022-10-03T16:43:53;101041.44;;;15.05;76.48
17072;BME280;7731;50.720;6.912;2022-10-03T16:46:30;101039.09;;;15.00;77.30
17072;BME280;7731;50.720;6.912;2022-10-03T16:49:11;101039.41;;;14.94;79.41
17072;BME280;7731;50.720;6.912;2022-10-03T16:52:02;101033.91;;;15.00;78.30
17072;BME280;7731;50.720;6.912;2022-10-03T16:54:35;101037.25;;;14.87;80.52
17072;BME280;7731;50.720;6.912;2022-10-03T16:57:18;101034.38;;;14.75;82.57
17072;BME280;7731;50.720;6.912;2022-10-03T16:59:51;101030.09;;;14.74;82.83
17072;BME280;7731;50.720;6.912;2022-10-03T17:02:26;101029.97;;;14.60;83.97
17072;BME280;7731;50.720;6.912;2022-10-03T17:05:07;101032.44;;;14.45;85.70
17072;BME280;7731;50.720;6.912;2022-10-03T17:07:42;101024.06;;;14.40;85.52
17072;BME280;7731;50.720;6.912;2022-10-03T17:10:33;101033.38;;;14.27;85.45
17072;BME280;7731;50.720;6.912;2022-10-03T17:13:13;101029.19;;;14.24;85.48
17072;BME280;7731;50.720;6.912;2022-10-03T17:15:51;101024.41;;;14.17;87.27
17072;BME280;7731;50.720;6.912;2022-10-03T17:18:26;101025.78;;;14.06;88.91
17072;BME280;7731;50.720;6.912;2022-10-03T17:21:07;101016.81;;;13.96;90.17
17072;BME280;7731;50.720;6.912;2022-10-03T17:23:54;101011.19;;;13.88;90.99
17072;BME280;7731;50.720;6.912;2022-10-03T17:26:34;101005.50;;;13.81;92.30
17072;BME280;7731;50.720;6.912;2022-10-03T17:29:17;101011.09;;;13.72;93.41
17072;BME280;7731;50.720;6.912;2022-10-03T17:31:59;101012.22;;;13.66;94.38
17072;BME280;7731;50.720;6.912;2022-10-03T17:34:33;101015.56;;;13.68;94.71
17072;BME280;7731;50.720;6.912;2022-10-03T17:37:26;101012.22;;;13.66;95.30
17072;BME280;7731;50.720;6.912;2022-10-03T17:40:20;101015.47;;;13.52;97.27
17072;BME280;7731;50.720;6.912;2022-10-03T17:42:56;101020.63;;;13.35;99.81
17072;BME280;7731;50.720;6.912;2022-10-03T17:45:43;101018.84;;;13.35;100.00
17072;BME280;7731;50.720;6.912;2022-10-03T17:48:21;101025.56;;;13.39;98.76
17072;BME280;7731;50.720;6.912;2022-10-03T17:50:59;101028.06;;;13.41;98.15
17072;BME280;7731;50.720;6.912;2022-10-03T17:53:35;101021.50;;;13.34;98.56
17072;BME280;7731;50.720;6.912;2022-10-03T17:56:12;101015.91;;;13.24;99.63
17072;BME280;7731;50.720;6.912;2022-10-03T17:58:50;101003.91;;;13.23;99.98
17072;BME280;7731;50.720;6.912;2022-10-03T18:01:34;101012.59;;;13.41;96.66